SBPL/PNZ METAR and TAF weather

Enter ICAO airport designator
Station Type Date Time Source
SBPL METAR 2019/02/22 23:00 UTC NOAA

SBPL 222300Z 03003KT 9999 FEW035 28/19 Q1013


Station Type Date Time Source
SBPL Decoded METAR 2019/02/22 23:00 UTC NOAA

Petrolina , Brazil (SBPL) 09-21S 040-33W
Feb 22, 2019 - 06:00 PM EST / 2019.02.22 2300 UTC
Wind: from the NNE (030 degrees) at 3 MPH (3 KT):0
Visibility: greater than 7 mile(s):0
Sky conditions: mostly clear
Temperature: 82 F (28 C)
Dew Point: 66 F (19 C)
Relative Humidity: 58%
Pressure (altimeter): 29.91 in. Hg (1013 hPa)
ob: SBPL 222300Z 03003KT 9999 FEW035 28/19 Q1013
cycle: 23

Station Type Date Time Source
SBPL TAF 2019/02/22 18:21 UTC NOAA

TAF SBPL 221600Z 2218/2318 16007KT 9999 SCT030 TX33/2218Z TN25/2309Z
BECMG 2222/2300 22003KT
BECMG 2314/2316 SCT030 FEW035TCU
RMK PEQ


Example: see airport list